Nearby METAR Reports

 

CWGT - Sisters Island (Auto)
Distance from station: NE 39km
Updated: 2019-08-25 13:00

 Wind from NW
Wind: NW 20 km/h
Temperature: 17°C
Dew Point: 11°C
Humidity: 68%
2019/08/25 20:00 CWGT 252000Z AUTO 31011KT 17/11 RMK AO1 SLP218 T01650108 51007
CWGB - Ballenas Island (Auto)
Distance from station: ENE 47km
Updated: 2019-08-25 13:00

 Wind from W
Wind: W 20 km/h
Temperature: 17°C
Dew Point: 12°C
Humidity: 73%
2019/08/25 20:00 CWGB 252000Z AUTO 27011KT 17/12 RMK AO1 SLP214 T01730117 50006
CYQQ - CFB Comox
Distance from station: N 55km
Updated: 2019-08-25 13:00
Few Clouds
Few Clouds
 Wind from N
Wind: N 19 km/h
Temperature: 19°C
Dew Point: 10°C
Humidity: 56%
Barometer: 1022 hPa
Clouds: Few Clouds
Visibility: 32 km
Cloud details: Few Clouds 1219 m
2019/08/25 20:00 CYQQ 252000Z 01010KT 20SM FEW040 19/10 A3018 RMK CU1 SLP220
 
CYPW - Powell River Airport
Distance from station: NNE 69km
Updated: 2019-08-25 13:00
Few Clouds
Few Clouds
 Wind from W
Wind: W 20 km/h
Temperature: 19°C
Dew Point: 11°C
Humidity: 60%
Barometer: 1022 hPa
Clouds: Few Clouds
Visibility: 40 km
Cloud details: Few Clouds 975 m
2019/08/25 20:00 CYPW 252000Z 27011KT 25SM FEW032 19/11 A3018 RMK CU1 SLP220 DENSITY ALT 800FT
CYCD - Nanaimo Airport
Distance from station: ESE 70km
Updated: 2019-08-25 13:00
Few Clouds
Few Clouds
 Wind from NE
Wind: NE 15 km/h
Temperature: 22°C
Dew Point: 10°C
Humidity: 47%
Barometer: 1021.7 hPa
Clouds: Few Clouds
Visibility: 48 km
Cloud details: Few Clouds 1524 m
2019/08/25 20:00 CYCD 252000Z 04008KT 30SM FEW050 22/10 A3017 RMK CU2 SLP217 DENSITY ALT 700FT
CYAZ - Tofino Airport
Distance from station: WSW 73km
Updated: 2019-08-25 13:00
Few Clouds
Few Clouds
 Wind from S
Wind: S 9 km/h
Temperature: 18°C
Dew Point: 12°C
Humidity: 68%
Barometer: 1022.4 hPa
Clouds: Few Clouds
Visibility: 24 km
Cloud details: Few Clouds 762 m
2019/08/25 20:00 CYAZ 252000Z 19005KT 15SM FEW025 18/12 A3019 RMK CU1 CU TR SLP223 DENSITY ALT 200FT
 
CWEL - Entrance Island (Auto)
Distance from station: E 73km
Updated: 2019-08-25 13:00

 Wind from NNW
Wind: NNW 28 km/h
Temperature: 18°C
Dew Point: 12°C
Humidity: 68%
2019/08/25 20:00 CWEL 252000Z AUTO 34015KT 18/12 RMK AO1 PK WND 34021/1901 SLP217 T01840124 51012
CYBL - Campbell River Airport
Distance from station: NNW 88km
Updated: 2019-08-25 13:00
Few Clouds
Few Clouds
 Wind from N
Wind: N 9 km/h
Temperature: 20°C
Dew Point: 10°C
Humidity: 53%
Barometer: 1021.7 hPa
Clouds: Few Clouds
Visibility: 48 km
Cloud details: Few Clouds 1372 m
2019/08/25 20:00 CYBL 252000Z 35005KT 310V040 30SM FEW045 20/10 A3017 RMK CU1 SLP220 DENSITY ALT 800FT
CWKH - Malahat Highway (Auto)
Distance from station: SE 116km
Updated: 2019-08-25 13:00

 
Temperature: 19°C
2019/08/25 20:00 CWKH 252000Z AUTO 19/ RMK AO1 SLP210 T0194 51010
 
CYVR - Vancouver Intl Airport
Distance from station: E 118km
Updated: 2019-08-25 13:00
Few Clouds
Few Clouds
 Wind from W
Wind: W 20 km/h
Temperature: 20°C
Dew Point: 12°C
Humidity: 60%
Barometer: 1021.7 hPa
Clouds: Few Clouds
Visibility: 48 km
Cloud details: Few Clouds 1067 m
Few Clouds 1524 m
2019/08/25 20:00 CYVR 252000Z 28011KT 30SM FEW035TCU FEW050 20/12 A3017 RMK TCU1SC1 SC TR SLP218 DENSITY ALT 300FT
CYYJ - Victoria Intl Airport
Distance from station: ESE 120km
Updated: 2019-08-25 13:00
Few Clouds
Few Clouds
 Wind from E
Wind: E 19 km/h
Temperature: 20°C
Dew Point: 12°C
Humidity: 60%
Barometer: 1021.7 hPa
Clouds: Few Clouds
Visibility: 48 km
Cloud details: Few Clouds 914 m
2019/08/25 20:00 CYYJ 252000Z 09010KT 30SM FEW030 20/12 A3017 RMK CU1 SLP218 DENSITY ALT 400FT
CWEB - Estevan Pt. (Auto)
Distance from station: W 129km
Updated: 2019-08-25 13:00

 Wind from NW
Wind: NW 33 km/h
Temperature: 17°C
Dew Point: 12°C
Humidity: 73%
2019/08/25 20:00 CWEB 252000Z AUTO 32018KT 17/12 RMK AO1 PK WND 32023/1904 SLP226 T01690115 51008
 
CWQK - Race Rocks (Auto)
Distance from station: SE 138km
Updated: 2019-08-25 13:00

 Wind from WSW
Wind: WSW 22 km/h
Temperature: 14°C
Dew Point: 11°C
Humidity: 82%
2019/08/25 20:00 CWQK 252000Z AUTO 24012KT 14/11 RMK AO1 SLP219 T01380110 51007
CWAE - Whistler
Distance from station: NE 167km
Updated: 2019-08-25 13:00
Mostly cloudy
Mostly cloudy
 Wind from S
Wind: S 9 km/h
Temperature: 22°C
Dew Point: 9°C
Humidity: 44%
Barometer: 1020 hPa
Clouds: Mostly cloudy
Visibility: 24 km
Cloud details: Mostly cloudy 1859 m
2019/08/25 20:00 CWAE 252000Z 18005KT 15SM BKN061TCU 22/09 A3012 RMK TCU5 WND ESTD SLP193 DENSITY ALT 3200FT
CYZT - Port Hardy Airport
Distance from station: NW 244km
Updated: 2019-08-25 13:00
Few Clouds
Few Clouds
 Wind from N
Wind: N 17 km/h
Temperature: 17°C
Dew Point: 12°C
Humidity: 73%
Barometer: 1024 hPa
Clouds: Few Clouds
Visibility: 24 km
Cloud details: Few Clouds 914 m
2019/08/25 20:00 CYZT 252000Z 35009KT 15SM FEW030 17/12 A3024 RMK CU2 SLP242
 
CWRU - Solander Isl (Auto)
Distance from station: WNW 247km
Updated: 2019-08-25 12:00
NOT Current

 Wind from WNW
Wind: WNW 33 km/h
Temperature: 14°C
Dew Point: 11°C
Humidity: 82%
2019/08/25 19:00 CWRU 251900Z AUTO 29018KT 14/11 RMK AO1 PK WND 29020/1834 SLP238 T01420106 51010